PWSweather.com
Personal Weather Stations
Station Observations
WISCHPK61
Green Bay Schmitt Park, Green Bay, WI 54311

Green Bay Schmitt ParkGreen Bay, WI 54311

Lat: 44.514277, Lon: -87.935067

Elevation: 735

Station Type: Acu Rite Pro Weather Center model 02032C

http://greenbayweathercam.com

High Low Average
Temperature 24.1°F-4.4°C 18.7°F-7.4°C 21.1°F-6.1°C
Dew Point 19.5°F-6.9°C 11.9°F-11.2°C 14.9°F-9.5°C
Winds 6.9 mph 11.1 kmh 1.2 mph 1.9 kmh 4.0 mph W6.4 kmh W
Wind Gusts 10.4 mph16.7 kmh 2.3 mph3.7 kmh 5.0 mph8.0 kmh
Humidity 96% 71% 77%
Pressure 29.30 in992.2 mb 29.03 in983.1 mb -
Precipitation 0.00 in0.0 mm - -
Hour Temp Dew Point Humidity Winds Wind Gusts Pressure Precip Precip Rate Daily Precip Total
12:00 AM 21.4°F-5.9°C 14.4°F-9.8°C 74% 5.8 mph NNE9.3 kmh NNE 4.6 mph7.4 kmh 29.05 in983.7 mb - 0.00 in0.0 mm 0.00 in0.0 mm
12:15 AM 21.4°F-5.9°C 14.4°F-9.8°C 74% 3.5 mph NNW5.6 kmh NNW 4.6 mph7.4 kmh 29.04 in983.4 mb - 0.00 in0.0 mm 0.00 in0.0 mm
12:30 AM 21.2°F-6.0°C 14.8°F-9.6°C 76% 4.6 mph WSW7.4 kmh WSW 5.8 mph9.3 kmh 29.04 in983.4 mb - 0.00 in0.0 mm 0.00 in0.0 mm
12:45 AM 21.2°F-6.0°C 14.5°F-9.7°C 75% 3.5 mph WSW5.6 kmh WSW 3.5 mph5.6 kmh 29.04 in983.4 mb - 0.00 in0.0 mm 0.00 in0.0 mm
01:00 AM 20.8°F-6.2°C 14.4°F-9.8°C 76% 2.3 mph WSW3.7 kmh WSW 3.5 mph5.6 kmh 29.04 in983.4 mb - 0.00 in0.0 mm 0.00 in0.0 mm
01:15 AM 20.7°F-6.3°C 14.3°F-9.8°C 76% 3.5 mph NNW5.6 kmh NNW 3.5 mph5.6 kmh 29.03 in983.1 mb - 0.00 in0.0 mm 0.00 in0.0 mm
01:30 AM 20.8°F-6.2°C 14.1°F-9.9°C 75% 3.5 mph NW5.6 kmh NW 3.5 mph5.6 kmh 29.04 in983.4 mb - 0.00 in0.0 mm 0.00 in0.0 mm
01:45 AM 21.0°F-6.1°C 14.6°F-9.7°C 76% 2.3 mph WNW3.7 kmh WNW 4.6 mph7.4 kmh 29.04 in983.4 mb - 0.00 in0.0 mm 0.00 in0.0 mm
02:00 AM 21.0°F-6.1°C 14.3°F-9.8°C 75% 3.5 mph NNE5.6 kmh NNE 6.9 mph11.1 kmh 29.04 in983.4 mb - 0.00 in0.0 mm 0.00 in0.0 mm
02:15 AM 21.1°F-6.1°C 14.4°F-9.8°C 75% 1.2 mph SSW1.9 kmh SSW 2.3 mph3.7 kmh 29.04 in983.4 mb - 0.00 in0.0 mm 0.00 in0.0 mm
02:30 AM 21.2°F-6.0°C 14.5°F-9.7°C 75% 4.6 mph NW7.4 kmh NW 5.8 mph9.3 kmh 29.04 in983.4 mb - 0.00 in0.0 mm 0.00 in0.0 mm
02:45 AM 21.1°F-6.1°C 14.4°F-9.8°C 75% 4.6 mph NNW7.4 kmh NNW 5.8 mph9.3 kmh 29.04 in983.4 mb - 0.00 in0.0 mm 0.00 in0.0 mm
03:00 AM 21.0°F-6.1°C 14.3°F-9.8°C 75% 4.6 mph N7.4 kmh N 4.6 mph7.4 kmh 29.04 in983.4 mb - 0.00 in0.0 mm 0.00 in0.0 mm
03:15 AM 21.0°F-6.1°C 14.3°F-9.8°C 75% 2.3 mph NNW3.7 kmh NNW 3.5 mph5.6 kmh 29.04 in983.4 mb - 0.00 in0.0 mm 0.00 in0.0 mm
03:30 AM 20.7°F-6.3°C 14.6°F-9.7°C 77% 4.6 mph NW7.4 kmh NW 5.8 mph9.3 kmh 29.03 in983.1 mb - 0.00 in0.0 mm 0.00 in0.0 mm
03:45 AM 20.5°F-6.4°C 14.7°F-9.6°C 78% 4.6 mph NNW7.4 kmh NNW 4.6 mph7.4 kmh 29.04 in983.4 mb - 0.00 in0.0 mm 0.00 in0.0 mm
04:00 AM 20.5°F-6.4°C 14.7°F-9.6°C 78% 4.6 mph NNW7.4 kmh NNW 4.6 mph7.4 kmh 29.04 in983.4 mb - 0.00 in0.0 mm 0.00 in0.0 mm
04:15 AM 20.4°F-6.4°C 15.0°F-9.4°C 79% 5.8 mph NW9.3 kmh NW 5.8 mph9.3 kmh 29.04 in983.4 mb - 0.00 in0.0 mm 0.00 in0.0 mm
04:30 AM 20.3°F-6.5°C 14.8°F-9.6°C 79% 3.5 mph NW5.6 kmh NW 6.9 mph11.1 kmh 29.04 in983.4 mb - 0.00 in0.0 mm 0.00 in0.0 mm
04:45 AM 20.3°F-6.5°C 14.5°F-9.7°C 78% 2.3 mph W3.7 kmh W 2.3 mph3.7 kmh 29.04 in983.4 mb - 0.00 in0.0 mm 0.00 in0.0 mm
05:00 AM 20.3°F-6.5°C 14.5°F-9.7°C 78% 2.3 mph N3.7 kmh N 2.3 mph3.7 kmh 29.04 in983.4 mb - 0.00 in0.0 mm 0.00 in0.0 mm
05:15 AM 20.3°F-6.5°C 14.2°F-9.9°C 77% 2.3 mph WNW3.7 kmh WNW 3.5 mph5.6 kmh 29.04 in983.4 mb - 0.00 in0.0 mm 0.00 in0.0 mm
05:30 AM 20.3°F-6.5°C 14.5°F-9.7°C 78% 4.6 mph NNW7.4 kmh NNW 5.8 mph9.3 kmh 29.05 in983.7 mb - 0.00 in0.0 mm 0.00 in0.0 mm
05:45 AM 20.3°F-6.5°C 14.5°F-9.7°C 78% 4.6 mph NNE7.4 kmh NNE 8.1 mph13.0 kmh 29.04 in983.4 mb - 0.00 in0.0 mm 0.00 in0.0 mm
06:00 AM 20.3°F-6.5°C 14.5°F-9.7°C 78% 3.5 mph WNW5.6 kmh WNW 4.6 mph7.4 kmh 29.05 in983.7 mb - 0.00 in0.0 mm 0.00 in0.0 mm
06:15 AM 20.5°F-6.4°C 14.7°F-9.6°C 78% 3.5 mph NW5.6 kmh NW 4.6 mph7.4 kmh 29.05 in983.7 mb - 0.00 in0.0 mm 0.00 in0.0 mm
06:30 AM 20.5°F-6.4°C 15.0°F-9.4°C 79% 4.6 mph NW7.4 kmh NW 4.6 mph7.4 kmh 29.05 in983.7 mb - 0.00 in0.0 mm 0.00 in0.0 mm
06:45 AM 20.5°F-6.4°C 15.0°F-9.4°C 79% 4.6 mph NNW7.4 kmh NNW 5.8 mph9.3 kmh 29.05 in983.7 mb - 0.00 in0.0 mm 0.00 in0.0 mm
07:00 AM 20.5°F-6.4°C 15.0°F-9.4°C 79% 3.5 mph 5.6 kmh 5.8 mph9.3 kmh 29.05 in983.7 mb - 0.00 in0.0 mm 0.00 in0.0 mm
07:15 AM 20.7°F-6.3°C 14.6°F-9.7°C 77% 3.5 mph NW5.6 kmh NW 4.6 mph7.4 kmh 29.06 in984.1 mb - 0.00 in0.0 mm 0.00 in0.0 mm
07:30 AM 20.7°F-6.3°C 14.3°F-9.8°C 76% 3.5 mph E5.6 kmh E 3.5 mph5.6 kmh 29.06 in984.1 mb - 0.00 in0.0 mm 0.00 in0.0 mm
07:45 AM 20.8°F-6.2°C 14.4°F-9.8°C 76% 4.6 mph NNW7.4 kmh NNW 4.6 mph7.4 kmh 29.06 in984.1 mb - 0.00 in0.0 mm 0.00 in0.0 mm
08:00 AM 20.8°F-6.2°C 14.4°F-9.8°C 76% 3.5 mph NNE5.6 kmh NNE 4.6 mph7.4 kmh 29.07 in984.4 mb - 0.00 in0.0 mm 0.00 in0.0 mm
08:15 AM 20.8°F-6.2°C 14.4°F-9.8°C 76% 2.3 mph NW3.7 kmh NW 2.3 mph3.7 kmh 29.07 in984.4 mb - 0.00 in0.0 mm 0.00 in0.0 mm
08:30 AM 20.8°F-6.2°C 14.4°F-9.8°C 76% 3.5 mph NW5.6 kmh NW 4.6 mph7.4 kmh 29.08 in984.8 mb - 0.00 in0.0 mm 0.00 in0.0 mm
08:45 AM 21.0°F-6.1°C 14.6°F-9.7°C 76% 3.5 mph NNW5.6 kmh NNW 4.6 mph7.4 kmh 29.08 in984.8 mb - 0.00 in0.0 mm 0.00 in0.0 mm
09:00 AM 21.2°F-6.0°C 15.1°F-9.4°C 77% 4.6 mph NW7.4 kmh NW 6.9 mph11.1 kmh 29.09 in985.1 mb - 0.00 in0.0 mm 0.00 in0.0 mm
09:15 AM 21.4°F-5.9°C 15.0°F-9.4°C 76% 4.6 mph NW7.4 kmh NW 6.9 mph11.1 kmh 29.09 in985.1 mb - 0.00 in0.0 mm 0.00 in0.0 mm
09:30 AM 21.6°F-5.8°C 15.2°F-9.3°C 76% 4.6 mph WNW7.4 kmh WNW 4.6 mph7.4 kmh 29.10 in985.4 mb - 0.00 in0.0 mm 0.00 in0.0 mm
09:45 AM 21.7°F-5.7°C 15.3°F-9.3°C 76% 4.6 mph NW7.4 kmh NW 4.6 mph7.4 kmh 29.10 in985.4 mb - 0.00 in0.0 mm 0.00 in0.0 mm
10:00 AM 22.1°F-5.5°C 15.4°F-9.2°C 75% 5.8 mph NNW9.3 kmh NNW 5.8 mph9.3 kmh 29.10 in985.4 mb - 0.00 in0.0 mm 0.00 in0.0 mm
10:15 AM 22.5°F-5.3°C 15.8°F-9.0°C 75% 6.9 mph NW11.1 kmh NW 10.4 mph16.7 kmh 29.10 in985.4 mb - 0.00 in0.0 mm 0.00 in0.0 mm
10:30 AM 22.6°F-5.2°C 15.6°F-9.1°C 74% 4.6 mph WNW7.4 kmh WNW 6.9 mph11.1 kmh 29.11 in985.8 mb - 0.00 in0.0 mm 0.00 in0.0 mm
10:45 AM 22.6°F-5.2°C 15.6°F-9.1°C 74% 4.6 mph NNW7.4 kmh NNW 4.6 mph7.4 kmh 29.11 in985.8 mb - 0.00 in0.0 mm 0.00 in0.0 mm
11:00 AM 22.8°F-5.1°C 15.8°F-9.0°C 74% 3.5 mph WNW5.6 kmh WNW 5.8 mph9.3 kmh 29.10 in985.4 mb - 0.00 in0.0 mm 0.00 in0.0 mm
11:15 AM 23.4°F-4.8°C 16.3°F-8.7°C 74% 3.5 mph NNW5.6 kmh NNW 4.6 mph7.4 kmh 29.11 in985.8 mb - 0.00 in0.0 mm 0.00 in0.0 mm
11:30 AM 23.5°F-4.7°C 16.4°F-8.7°C 74% 5.8 mph NW9.3 kmh NW 5.8 mph9.3 kmh 29.10 in985.4 mb - 0.00 in0.0 mm 0.00 in0.0 mm
11:45 AM 24.1°F-4.4°C 17.0°F-8.3°C 74% 4.6 mph NNW7.4 kmh NNW 5.8 mph9.3 kmh 29.11 in985.8 mb - 0.00 in0.0 mm 0.00 in0.0 mm
12:00 PM 24.1°F-4.4°C 16.7°F-8.5°C 73% 4.6 mph NW7.4 kmh NW 6.9 mph11.1 kmh 29.11 in985.8 mb - 0.00 in0.0 mm 0.00 in0.0 mm
12:15 PM 23.7°F-4.6°C 16.6°F-8.6°C 74% 4.6 mph WNW7.4 kmh WNW 5.8 mph9.3 kmh 29.11 in985.8 mb - 0.00 in0.0 mm 0.00 in0.0 mm
12:30 PM 23.9°F-4.5°C 16.8°F-8.4°C 74% 3.5 mph NNW5.6 kmh NNW 4.6 mph7.4 kmh 29.11 in985.8 mb - 0.00 in0.0 mm 0.00 in0.0 mm
12:45 PM 23.9°F-4.5°C 16.5°F-8.6°C 73% 3.5 mph NW5.6 kmh NW 4.6 mph7.4 kmh 29.12 in986.1 mb - 0.00 in0.0 mm 0.00 in0.0 mm
01:00 PM 23.7°F-4.6°C 16.6°F-8.6°C 74% 3.5 mph N5.6 kmh N 4.6 mph7.4 kmh 29.12 in986.1 mb - 0.00 in0.0 mm 0.00 in0.0 mm
01:15 PM 23.4°F-4.8°C 16.3°F-8.7°C 74% 5.8 mph NW9.3 kmh NW 6.9 mph11.1 kmh 29.13 in986.5 mb - 0.00 in0.0 mm 0.00 in0.0 mm
01:30 PM 23.4°F-4.8°C 16.6°F-8.6°C 75% 4.6 mph N7.4 kmh N 4.6 mph7.4 kmh 29.13 in986.5 mb - 0.00 in0.0 mm 0.00 in0.0 mm
01:45 PM 23.5°F-4.7°C 16.7°F-8.5°C 75% 4.6 mph NW7.4 kmh NW 5.8 mph9.3 kmh 29.13 in986.5 mb - 0.00 in0.0 mm 0.00 in0.0 mm
02:00 PM 23.4°F-4.8°C 16.6°F-8.6°C 75% 5.8 mph NW9.3 kmh NW 5.8 mph9.3 kmh 29.14 in986.8 mb - 0.00 in0.0 mm 0.00 in0.0 mm
02:15 PM 23.2°F-4.9°C 16.4°F-8.7°C 75% 4.6 mph NW7.4 kmh NW 4.6 mph7.4 kmh 29.15 in987.1 mb - 0.00 in0.0 mm 0.00 in0.0 mm
02:30 PM 23.2°F-4.9°C 16.8°F-8.4°C 76% 3.5 mph NNW5.6 kmh NNW 5.8 mph9.3 kmh 29.15 in987.1 mb - 0.00 in0.0 mm 0.00 in0.0 mm
02:45 PM 23.1°F-4.9°C 17.0°F-8.3°C 77% 4.6 mph N7.4 kmh N 5.8 mph9.3 kmh 29.16 in987.5 mb - 0.00 in0.0 mm 0.00 in0.0 mm
03:00 PM 22.8°F-5.1°C 16.4°F-8.7°C 76% 4.6 mph NW7.4 kmh NW 5.8 mph9.3 kmh 29.16 in987.5 mb - 0.00 in0.0 mm 0.00 in0.0 mm
03:15 PM 22.6°F-5.2°C 16.5°F-8.6°C 77% 5.8 mph N9.3 kmh N 5.8 mph9.3 kmh 29.18 in988.1 mb - 0.00 in0.0 mm 0.00 in0.0 mm
03:30 PM 22.4°F-5.3°C 16.3°F-8.7°C 77% 5.8 mph N9.3 kmh N 6.9 mph11.1 kmh 29.18 in988.1 mb - 0.00 in0.0 mm 0.00 in0.0 mm
03:45 PM 22.3°F-5.4°C 16.5°F-8.6°C 78% 3.5 mph NNE5.6 kmh NNE 5.8 mph9.3 kmh 29.19 in988.5 mb - 0.00 in0.0 mm 0.00 in0.0 mm
04:00 PM 22.3°F-5.4°C 16.2°F-8.8°C 77% 4.6 mph NW7.4 kmh NW 4.6 mph7.4 kmh 29.19 in988.5 mb - 0.00 in0.0 mm 0.00 in0.0 mm
04:15 PM 22.1°F-5.5°C 16.3°F-8.7°C 78% 5.8 mph NNW9.3 kmh NNW 5.8 mph9.3 kmh 29.20 in988.8 mb - 0.00 in0.0 mm 0.00 in0.0 mm
04:30 PM 21.7°F-5.7°C 16.2°F-8.8°C 79% 3.5 mph NW5.6 kmh NW 4.6 mph7.4 kmh 29.21 in989.2 mb - 0.00 in0.0 mm 0.00 in0.0 mm
04:45 PM 21.7°F-5.7°C 16.5°F-8.6°C 80% 3.5 mph W5.6 kmh W 3.5 mph5.6 kmh 29.22 in989.5 mb - 0.00 in0.0 mm 0.00 in0.0 mm
05:00 PM 21.7°F-5.7°C 17.1°F-8.3°C 82% 3.5 mph E5.6 kmh E 5.8 mph9.3 kmh 29.22 in989.5 mb - 0.00 in0.0 mm 0.00 in0.0 mm
05:15 PM 21.7°F-5.7°C 16.8°F-8.4°C 81% 4.6 mph NW7.4 kmh NW 4.6 mph7.4 kmh 29.23 in989.8 mb - 0.00 in0.0 mm 0.00 in0.0 mm
05:30 PM 21.6°F-5.8°C 17.0°F-8.3°C 82% 2.3 mph NNW3.7 kmh NNW 2.3 mph3.7 kmh 29.24 in990.2 mb - 0.00 in0.0 mm 0.00 in0.0 mm
05:45 PM 21.6°F-5.8°C 17.2°F-8.2°C 83% 3.5 mph WNW5.6 kmh WNW 4.6 mph7.4 kmh 29.24 in990.2 mb - 0.00 in0.0 mm 0.00 in0.0 mm
06:00 PM 21.6°F-5.8°C 17.2°F-8.2°C 83% 3.5 mph NNE5.6 kmh NNE 4.6 mph7.4 kmh 29.25 in990.5 mb - 0.00 in0.0 mm 0.00 in0.0 mm
06:15 PM 20.5°F-6.4°C 19.5°F-6.9°C 96% 4.6 mph NNW7.4 kmh NNW 4.6 mph7.4 kmh 29.26 in990.9 mb - 0.00 in0.0 mm 0.00 in0.0 mm
06:30 PM 20.3°F-6.5°C 18.3°F-7.6°C 92% 3.5 mph W5.6 kmh W 3.5 mph5.6 kmh 29.27 in991.2 mb - 0.00 in0.0 mm 0.00 in0.0 mm
06:45 PM 19.9°F-6.7°C 16.1°F-8.8°C 85% 2.3 mph W3.7 kmh W 4.6 mph7.4 kmh 29.27 in991.2 mb - 0.00 in0.0 mm 0.00 in0.0 mm
07:00 PM 19.9°F-6.7°C 14.4°F-9.8°C 79% 3.5 mph NW5.6 kmh NW 4.6 mph7.4 kmh 29.28 in991.5 mb - 0.00 in0.0 mm 0.00 in0.0 mm
07:15 PM 19.8°F-6.8°C 12.5°F-10.8°C 73% 3.5 mph N5.6 kmh N 4.6 mph7.4 kmh 29.29 in991.9 mb - 0.00 in0.0 mm 0.00 in0.0 mm
07:30 PM 19.8°F-6.8°C 12.2°F-11.0°C 72% 3.5 mph NW5.6 kmh NW 4.6 mph7.4 kmh 29.28 in991.5 mb - 0.00 in0.0 mm 0.00 in0.0 mm
07:45 PM 19.8°F-6.8°C 11.9°F-11.2°C 71% 3.5 mph NNW5.6 kmh NNW 3.5 mph5.6 kmh 29.28 in991.5 mb - 0.00 in0.0 mm 0.00 in0.0 mm
08:00 PM 19.8°F-6.8°C 12.2°F-11.0°C 72% 3.5 mph NNW5.6 kmh NNW 5.8 mph9.3 kmh 29.28 in991.5 mb - 0.00 in0.0 mm 0.00 in0.0 mm
08:15 PM 19.6°F-6.9°C 12.0°F-11.1°C 72% 3.5 mph N5.6 kmh N 3.5 mph5.6 kmh 29.28 in991.5 mb - 0.00 in0.0 mm 0.00 in0.0 mm
08:30 PM 19.4°F-7.0°C 12.2°F-11.0°C 73% 3.5 mph N5.6 kmh N 4.6 mph7.4 kmh 29.28 in991.5 mb - 0.00 in0.0 mm 0.00 in0.0 mm
08:45 PM 19.2°F-7.1°C 12.3°F-10.9°C 74% 5.8 mph NNW9.3 kmh NNW 6.9 mph11.1 kmh 29.29 in991.9 mb - 0.00 in0.0 mm 0.00 in0.0 mm
09:00 PM 19.0°F-7.2°C 12.1°F-11.1°C 74% 3.5 mph NW5.6 kmh NW 3.5 mph5.6 kmh 29.29 in991.9 mb - 0.00 in0.0 mm 0.00 in0.0 mm
09:15 PM 18.9°F-7.3°C 12.0°F-11.1°C 74% 4.6 mph N7.4 kmh N 5.8 mph9.3 kmh 29.29 in991.9 mb - 0.00 in0.0 mm 0.00 in0.0 mm
09:30 PM 18.9°F-7.3°C 12.0°F-11.1°C 74% 4.6 mph N7.4 kmh N 4.6 mph7.4 kmh 29.29 in991.9 mb - 0.00 in0.0 mm 0.00 in0.0 mm
09:45 PM 18.7°F-7.4°C 12.1°F-11.1°C 75% 3.5 mph NW5.6 kmh NW 3.5 mph5.6 kmh 29.29 in991.9 mb - 0.00 in0.0 mm 0.00 in0.0 mm
10:00 PM 18.7°F-7.4°C 12.1°F-11.1°C 75% 4.6 mph WNW7.4 kmh WNW 5.8 mph9.3 kmh 29.29 in991.9 mb - 0.00 in0.0 mm 0.00 in0.0 mm
10:15 PM 18.7°F-7.4°C 12.4°F-10.9°C 76% 3.5 mph NW5.6 kmh NW 4.6 mph7.4 kmh 29.29 in991.9 mb - 0.00 in0.0 mm 0.00 in0.0 mm
10:30 PM 18.7°F-7.4°C 12.4°F-10.9°C 76% 4.6 mph NNW7.4 kmh NNW 5.8 mph9.3 kmh 29.29 in991.9 mb - 0.00 in0.0 mm 0.00 in0.0 mm
10:45 PM 18.7°F-7.4°C 12.4°F-10.9°C 76% 3.5 mph NNW5.6 kmh NNW 3.5 mph5.6 kmh 29.29 in991.9 mb - 0.00 in0.0 mm 0.00 in0.0 mm
11:00 PM 18.7°F-7.4°C 12.7°F-10.7°C 77% 4.6 mph NNW7.4 kmh NNW 5.8 mph9.3 kmh 29.30 in992.2 mb - 0.00 in0.0 mm 0.00 in0.0 mm
11:15 PM 18.7°F-7.4°C 13.0°F-10.6°C 78% 2.3 mph NW3.7 kmh NW 4.6 mph7.4 kmh 29.30 in992.2 mb - 0.00 in0.0 mm 0.00 in0.0 mm
11:30 PM 18.7°F-7.4°C 12.7°F-10.7°C 77% 3.5 mph NW5.6 kmh NW 3.5 mph5.6 kmh 29.30 in992.2 mb - 0.00 in0.0 mm 0.00 in0.0 mm
11:45 PM 18.7°F-7.4°C 13.0°F-10.6°C 78% 3.5 mph NW5.6 kmh NW 3.5 mph5.6 kmh 29.30 in992.2 mb - 0.00 in0.0 mm 0.00 in0.0 mm